Time,TemperatureF,DewpointF,PressureIn,WindDirection,WindDirectionDegrees,WindSpeedMPH,WindSpeedGustMPH,Humidity,HourlyPrecipIn,Conditions,Clouds,dailyrainin,SoftwareType,DateUTC
2013-04-15 00:00:00,38.5,33.2,29.87,SE,124,2.0,2.0,81,0.00,,OVC003,0.00,VWS V14.01,2013-04-15 04:00:00,
2013-04-15 00:02:00,38.4,33.1,29.87,SE,124,2.0,2.0,81,0.00,,OVC003,0.00,VWS V14.01,2013-04-15 04:02:00,
2013-04-15 00:04:00,38.4,33.1,29.87,SE,124,2.0,2.0,81,0.00,,OVC003,0.00,VWS V14.01,2013-04-15 04:04:00,
2013-04-15 00:05:00,38.4,33.1,29.87,SE,124,2.0,2.0,81,0.00,,OVC003,0.00,VWS V14.01,2013-04-15 04:05:00,
2013-04-15 00:10:00,38.3,33.0,29.86,SE,124,2.0,2.0,81,0.00,,OVC003,0.00,VWS V14.01,2013-04-15 04:10:00,
2013-04-15 00:15:00,38.2,32.9,29.86,SE,124,2.0,2.0,81,0.00,,OVC003,0.00,VWS V14.01,2013-04-15 04:15:00,
2013-04-15 00:20:00,38.2,32.9,29.86,SE,124,2.0,2.0,81,0.00,,OVC003,0.00,VWS V14.01,2013-04-15 04:20:00,
2013-04-15 00:25:00,38.1,32.8,29.86,SE,124,2.0,2.0,81,0.00,,OVC003,0.00,VWS V14.01,2013-04-15 04:25:00,
2013-04-15 00:30:00,38.1,32.8,29.86,SSE,149,2.0,0.0,81,0.00,,OVC003,0.00,VWS V14.01,2013-04-15 04:30:00,
2013-04-15 00:35:00,38.0,32.7,29.86,NE,45,2.0,0.0,81,0.00,,OVC003,0.00,VWS V14.01,2013-04-15 04:35:00,
2013-04-15 00:40:00,38.0,32.7,29.86,NE,45,2.0,0.0,81,0.00,,OVC003,0.00,VWS V14.01,2013-04-15 04:40:00,
2013-04-15 00:45:00,37.7,32.4,29.86,NE,35,2.0,3.0,81,0.00,,OVC003,0.00,VWS V14.01,2013-04-15 04:45:00,
2013-04-15 00:47:00,37.8,32.5,29.86,NE,45,2.0,2.0,81,0.00,,OVC003,0.00,VWS V14.01,2013-04-15 04:47:00,
2013-04-15 00:50:00,37.6,32.3,29.86,NE,35,2.0,2.0,81,0.00,,OVC003,0.00,VWS V14.01,2013-04-15 04:50:00,
2013-04-15 00:52:00,37.7,32.4,29.86,NE,35,2.0,3.0,81,0.00,,OVC003,0.00,VWS V14.01,2013-04-15 04:52:00,
2013-04-15 00:55:00,37.4,32.1,29.86,NE,35,2.0,0.0,81,0.00,,OVC003,0.00,VWS V14.01,2013-04-15 04:55:00,
2013-04-15 00:57:00,37.6,32.3,29.86,NE,35,2.0,2.0,81,0.00,,OVC003,0.00,VWS V14.01,2013-04-15 04:57:00,
2013-04-15 01:00:00,37.3,32.3,29.86,NE,35,2.0,0.0,82,0.00,,OVC003,0.00,VWS V14.01,2013-04-15 05:00:00,
2013-04-15 01:02:00,37.4,32.1,29.86,NE,35,2.0,0.0,81,0.00,,OVC003,0.00,VWS V14.01,2013-04-15 05:02:00,
2013-04-15 01:05:00,37.1,32.1,29.86,NE,35,2.0,0.0,82,0.00,,OVC003,0.00,VWS V14.01,2013-04-15 05:05:00,
2013-04-15 01:07:00,37.3,32.3,29.86,NE,35,2.0,0.0,82,0.00,,OVC003,0.00,VWS V14.01,2013-04-15 05:07:00,
2013-04-15 01:10:00,37.0,32.0,29.86,NE,35,2.0,0.0,82,0.00,,OVC003,0.00,VWS V14.01,2013-04-15 05:10:00,
2013-04-15 01:12:00,37.1,32.1,29.86,NE,35,2.0,0.0,82,0.00,,OVC003,0.00,VWS V14.01,2013-04-15 05:12:00,
2013-04-15 01:15:00,36.9,31.9,29.85,NE,35,2.0,0.0,82,0.00,,OVC003,0.00,VWS V14.01,2013-04-15 05:15:00,
2013-04-15 01:17:00,37.0,32.0,29.86,NE,35,2.0,0.0,82,0.00,,OVC003,0.00,VWS V14.01,2013-04-15 05:17:00,
2013-04-15 01:20:00,36.7,31.7,29.85,NE,35,2.0,0.0,82,0.00,,OVC003,0.00,VWS V14.01,2013-04-15 05:20:00,
2013-04-15 01:22:00,36.9,31.9,29.85,NE,35,2.0,0.0,82,0.00,,OVC003,0.00,VWS V14.01,2013-04-15 05:22:00,
2013-04-15 01:25:00,36.6,31.6,29.85,NE,35,2.0,0.0,82,0.00,,OVC003,0.00,VWS V14.01,2013-04-15 05:25:00,
2013-04-15 01:27:00,36.7,31.7,29.85,NE,35,2.0,0.0,82,0.00,,OVC003,0.00,VWS V14.01,2013-04-15 05:27:00,
2013-04-15 01:30:00,36.5,31.8,29.85,NE,35,2.0,0.0,83,0.00,,OVC003,0.00,VWS V14.01,2013-04-15 05:30:00,
2013-04-15 01:32:00,36.6,31.6,29.85,NE,35,2.0,0.0,82,0.00,,OVC003,0.00,VWS V14.01,2013-04-15 05:32:00,
2013-04-15 01:35:00,36.4,31.7,29.85,NE,35,2.0,0.0,83,0.00,,OVC003,0.00,VWS V14.01,2013-04-15 05:35:00,
2013-04-15 01:37:00,36.5,31.8,29.85,NE,35,2.0,0.0,83,0.00,,OVC003,0.00,VWS V14.01,2013-04-15 05:37:00,
2013-04-15 01:40:00,36.3,31.6,29.85,NE,35,2.0,0.0,83,0.00,,OVC003,0.00,VWS V14.01,2013-04-15 05:40:00,
2013-04-15 01:42:00,36.4,31.7,29.85,NE,35,2.0,0.0,83,0.00,,OVC003,0.00,VWS V14.01,2013-04-15 05:42:00,
2013-04-15 01:45:00,36.3,31.6,29.85,NE,35,2.0,0.0,83,0.00,,OVC003,0.00,VWS V14.01,2013-04-15 05:45:00,
2013-04-15 01:48:00,36.4,31.7,29.85,NE,35,2.0,0.0,83,0.00,,OVC003,0.00,VWS V14.01,2013-04-15 05:48:00,
2013-04-15 01:50:00,36.3,31.6,29.85,NE,35,2.0,0.0,83,0.00,,OVC003,0.00,VWS V14.01,2013-04-15 05:50:00,
2013-04-15 01:53:00,36.4,31.7,29.85,NE,35,2.0,0.0,83,0.00,,OVC003,0.00,VWS V14.01,2013-04-15 05:53:00,
2013-04-15 01:55:00,36.2,31.5,29.85,NE,35,2.0,0.0,83,0.00,,OVC003,0.00,VWS V14.01,2013-04-15 05:55:00,
2013-04-15 01:58:00,36.3,31.6,29.85,NE,35,2.0,0.0,83,0.00,,OVC003,0.00,VWS V14.01,2013-04-15 05:58:00,
2013-04-15 02:00:00,36.2,31.5,29.84,NE,35,2.0,0.0,83,0.00,,OVC003,0.00,VWS V14.01,2013-04-15 06:00:00,
2013-04-15 02:03:00,36.2,31.5,29.85,NE,35,2.0,0.0,83,0.00,,OVC003,0.00,VWS V14.01,2013-04-15 06:03:00,
2013-04-15 02:05:00,36.1,31.5,29.84,NE,35,2.0,0.0,83,0.00,,OVC003,0.00,VWS V14.01,2013-04-15 06:05:00,
2013-04-15 02:08:00,36.2,31.5,29.84,NE,35,2.0,0.0,83,0.00,,OVC003,0.00,VWS V14.01,2013-04-15 06:08:00,
2013-04-15 02:10:00,36.1,31.5,29.84,NE,35,2.0,0.0,83,0.00,,OVC003,0.00,VWS V14.01,2013-04-15 06:10:00,
2013-04-15 02:13:00,36.1,31.5,29.84,NE,35,2.0,0.0,83,0.00,,OVC003,0.00,VWS V14.01,2013-04-15 06:13:00,
2013-04-15 02:15:00,36.0,31.4,29.84,NE,35,2.0,0.0,83,0.00,,OVC003,0.00,VWS V14.01,2013-04-15 06:15:00,
2013-04-15 02:18:00,36.0,31.4,29.84,NE,35,2.0,0.0,83,0.00,,OVC003,0.00,VWS V14.01,2013-04-15 06:18:00,
2013-04-15 02:20:00,36.0,31.4,29.84,NE,35,2.0,0.0,83,0.00,,OVC003,0.00,VWS V14.01,2013-04-15 06:20:00,
2013-04-15 02:23:00,36.0,31.4,29.84,NE,35,2.0,0.0,83,0.00,,OVC003,0.00,VWS V14.01,2013-04-15 06:23:00,
2013-04-15 02:25:00,35.9,31.2,29.84,NE,35,2.0,0.0,83,0.00,,OVC003,0.00,VWS V14.01,2013-04-15 06:25:00,
2013-04-15 02:29:00,36.0,31.4,29.84,NE,35,2.0,0.0,83,0.00,,OVC003,0.00,VWS V14.01,2013-04-15 06:29:00,
2013-04-15 02:30:00,35.9,31.2,29.84,NE,35,2.0,0.0,83,0.00,,OVC003,0.00,VWS V14.01,2013-04-15 06:30:00,
2013-04-15 02:34:00,35.9,31.2,29.84,NE,35,2.0,0.0,83,0.00,,OVC003,0.00,VWS V14.01,2013-04-15 06:34:00,
2013-04-15 02:35:00,35.9,31.2,29.84,NE,35,2.0,0.0,83,0.00,,OVC003,0.00,VWS V14.01,2013-04-15 06:35:00,
2013-04-15 02:39:00,35.9,31.2,29.84,NE,35,2.0,0.0,83,0.00,,OVC003,0.00,VWS V14.01,2013-04-15 06:39:00,
2013-04-15 02:40:00,35.8,31.5,29.84,NE,35,2.0,0.0,84,0.00,,OVC003,0.00,VWS V14.01,2013-04-15 06:40:00,
2013-04-15 02:44:00,35.8,31.1,29.84,NE,35,2.0,0.0,83,0.00,,OVC003,0.00,VWS V14.01,2013-04-15 06:44:00,
2013-04-15 02:45:00,35.7,31.4,29.83,NE,35,2.0,0.0,84,0.00,,OVC003,0.00,VWS V14.01,2013-04-15 06:45:00,
2013-04-15 02:49:00,35.8,31.5,29.84,NE,35,2.0,0.0,84,0.00,,OVC003,0.00,VWS V14.01,2013-04-15 06:49:00,
2013-04-15 02:50:00,35.7,31.4,29.83,NE,35,2.0,0.0,84,0.00,,OVC003,0.00,VWS V14.01,2013-04-15 06:50:00,
2013-04-15 02:54:00,35.7,31.4,29.83,NE,35,2.0,0.0,84,0.00,,OVC003,0.00,VWS V14.01,2013-04-15 06:54:00,
2013-04-15 02:55:00,35.6,31.2,29.83,NE,35,2.0,0.0,84,0.00,,OVC003,0.00,VWS V14.01,2013-04-15 06:55:00,
2013-04-15 02:59:00,35.6,31.2,29.83,NE,35,2.0,0.0,84,0.00,,OVC003,0.00,VWS V14.01,2013-04-15 06:59:00,
2013-04-15 03:00:00,35.5,31.1,29.82,NE,35,2.0,0.0,84,0.00,,OVC003,0.00,VWS V14.01,2013-04-15 07:00:00,
2013-04-15 03:04:00,35.5,31.1,29.83,NE,35,2.0,0.0,84,0.00,,OVC003,0.00,VWS V14.01,2013-04-15 07:04:00,
2013-04-15 03:05:00,35.5,31.1,29.82,NE,35,2.0,0.0,84,0.00,,OVC003,0.00,VWS V14.01,2013-04-15 07:05:00,
2013-04-15 03:10:00,35.4,31.1,29.82,NE,35,2.0,0.0,84,0.00,,OVC003,0.00,VWS V14.01,2013-04-15 07:10:00,
2013-04-15 03:15:00,35.3,31.0,29.82,NE,35,2.0,0.0,84,0.00,,OVC003,0.00,VWS V14.01,2013-04-15 07:15:00,
2013-04-15 03:20:00,35.3,31.2,29.82,NE,35,2.0,0.0,85,0.00,,OVC003,0.00,VWS V14.01,2013-04-15 07:20:00,
2013-04-15 03:25:00,35.3,31.2,29.82,NE,35,2.0,0.0,85,0.00,,OVC003,0.00,VWS V14.01,2013-04-15 07:25:00,
2013-04-15 03:30:00,35.3,31.2,29.82,NE,35,2.0,0.0,85,0.00,,OVC003,0.00,VWS V14.01,2013-04-15 07:30:00,
2013-04-15 03:35:00,35.2,31.1,29.82,NE,35,2.0,0.0,85,0.00,,OVC003,0.00,VWS V14.01,2013-04-15 07:35:00,
2013-04-15 03:40:00,35.1,31.0,29.82,NE,35,2.0,0.0,85,0.00,,OVC003,0.00,VWS V14.01,2013-04-15 07:40:00,
2013-04-15 03:41:00,35.2,31.1,29.82,NE,35,2.0,0.0,85,0.00,,OVC003,0.00,VWS V14.01,2013-04-15 07:41:00,
2013-04-15 03:44:00,35.2,31.1,29.82,NE,35,2.0,0.0,85,0.00,,OVC003,0.00,VWS V14.01,2013-04-15 07:44:00,
2013-04-15 03:45:00,35.0,31.0,29.83,NE,35,2.0,0.0,85,0.00,,OVC003,0.00,VWS V14.01,2013-04-15 07:45:00,
2013-04-15 03:47:00,35.1,31.0,29.82,NE,35,2.0,0.0,85,0.00,,OVC003,0.00,VWS V14.01,2013-04-15 07:47:00,
2013-04-15 03:49:00,35.1,31.0,29.82,NE,35,2.0,0.0,85,0.00,,OVC003,0.00,VWS V14.01,2013-04-15 07:49:00,
2013-04-15 03:50:00,35.0,31.0,29.83,NE,35,2.0,0.0,85,0.00,,OVC003,0.00,VWS V14.01,2013-04-15 07:50:00,
2013-04-15 03:51:00,35.0,31.0,29.82,NE,35,2.0,0.0,85,0.00,,OVC003,0.00,VWS V14.01,2013-04-15 07:51:00,
2013-04-15 03:53:00,35.0,31.0,29.83,NE,35,2.0,0.0,85,0.00,,OVC003,0.00,VWS V14.01,2013-04-15 07:53:00,
2013-04-15 03:54:00,35.0,31.0,29.83,NE,35,2.0,0.0,85,0.00,,OVC003,0.00,VWS V14.01,2013-04-15 07:54:00,
2013-04-15 03:55:00,35.0,31.2,29.83,NE,35,2.0,0.0,86,0.00,,OVC003,0.00,VWS V14.01,2013-04-15 07:55:00,
2013-04-15 03:59:00,35.0,31.2,29.83,NE,35,2.0,0.0,86,0.00,,OVC003,0.00,VWS V14.01,2013-04-15 07:59:00,
2013-04-15 04:00:00,35.0,31.2,29.83,NE,35,2.0,0.0,86,0.00,,OVC003,0.00,VWS V14.01,2013-04-15 08:00:00,
2013-04-15 04:04:00,35.0,31.2,29.83,NE,35,2.0,0.0,86,0.00,,OVC003,0.00,VWS V14.01,2013-04-15 08:04:00,
2013-04-15 04:05:00,35.0,31.2,29.83,NE,35,2.0,0.0,86,0.00,,OVC003,0.00,VWS V14.01,2013-04-15 08:05:00,
2013-04-15 04:09:00,35.0,31.2,29.83,NE,35,2.0,0.0,86,0.00,,OVC003,0.00,VWS V14.01,2013-04-15 08:09:00,
2013-04-15 04:10:00,35.0,31.2,29.83,NE,35,2.0,0.0,86,0.00,,OVC003,0.00,VWS V14.01,2013-04-15 08:10:00,
2013-04-15 04:15:00,35.0,31.2,29.83,NE,35,2.0,0.0,86,0.00,,OVC003,0.00,VWS V14.01,2013-04-15 08:15:00,
2013-04-15 04:20:00,35.0,31.2,29.83,NE,35,2.0,0.0,86,0.00,,OVC003,0.00,VWS V14.01,2013-04-15 08:20:00,
2013-04-15 04:25:00,35.0,31.2,29.84,NE,35,2.0,0.0,86,0.00,,OVC003,0.00,VWS V14.01,2013-04-15 08:25:00,
2013-04-15 04:30:00,35.0,31.2,29.84,NE,35,2.0,0.0,86,0.00,,OVC003,0.00,VWS V14.01,2013-04-15 08:30:00,
2013-04-15 04:35:00,35.1,31.6,29.85,NE,35,2.0,2.0,87,0.00,,OVC003,0.00,VWS V14.01,2013-04-15 08:35:00,
2013-04-15 04:36:00,35.1,31.3,29.84,NE,35,2.0,0.0,86,0.00,,OVC003,0.00,VWS V14.01,2013-04-15 08:36:00,
2013-04-15 04:37:00,35.1,31.3,29.85,NE,35,2.0,0.0,86,0.00,,OVC003,0.00,VWS V14.01,2013-04-15 08:37:00,
2013-04-15 04:40:00,35.1,31.6,29.85,NE,35,2.0,0.0,87,0.00,,OVC003,0.00,VWS V14.01,2013-04-15 08:40:00,
2013-04-15 04:42:00,35.1,31.6,29.85,NE,35,2.0,2.0,87,0.00,,OVC003,0.00,VWS V14.01,2013-04-15 08:42:00,
2013-04-15 04:43:00,35.1,31.6,29.85,NE,35,2.0,0.0,87,0.00,,OVC003,0.00,VWS V14.01,2013-04-15 08:43:00,
2013-04-15 04:45:00,35.2,31.7,29.86,NE,35,2.0,2.0,87,0.00,,OVC003,0.00,VWS V14.01,2013-04-15 08:45:00,
2013-04-15 04:47:00,35.2,31.7,29.85,NE,35,2.0,0.0,87,0.00,,OVC003,0.00,VWS V14.01,2013-04-15 08:47:00,
2013-04-15 04:50:00,35.3,31.8,29.86,NE,35,2.0,2.0,87,0.00,,OVC003,0.00,VWS V14.01,2013-04-15 08:50:00,
2013-04-15 04:52:00,35.2,31.7,29.86,NE,35,2.0,2.0,87,0.00,,OVC003,0.00,VWS V14.01,2013-04-15 08:52:00,
2013-04-15 04:55:00,35.3,31.8,29.86,NE,35,2.0,0.0,87,0.00,,OVC003,0.00,VWS V14.01,2013-04-15 08:55:00,
2013-04-15 04:57:00,35.3,31.8,29.86,NE,35,2.0,2.0,87,0.00,,OVC003,0.00,VWS V14.01,2013-04-15 08:57:00,
2013-04-15 05:00:00,35.3,31.8,29.85,NE,35,2.0,0.0,87,0.00,,OVC003,0.00,VWS V14.01,2013-04-15 09:00:00,
2013-04-15 05:02:00,35.3,31.8,29.86,NE,35,2.0,0.0,87,0.00,,OVC003,0.00,VWS V14.01,2013-04-15 09:02:00,
2013-04-15 05:05:00,35.3,31.8,29.85,NE,35,2.0,0.0,87,0.00,,OVC003,0.00,VWS V14.01,2013-04-15 09:05:00,
2013-04-15 05:07:00,35.3,31.8,29.85,NE,35,2.0,0.0,87,0.00,,OVC003,0.00,VWS V14.01,2013-04-15 09:07:00,
2013-04-15 05:10:00,35.3,31.8,29.85,NE,35,2.0,0.0,87,0.00,,OVC003,0.00,VWS V14.01,2013-04-15 09:10:00,
2013-04-15 05:13:00,35.3,31.8,29.85,NE,35,2.0,0.0,87,0.00,,OVC003,0.00,VWS V14.01,2013-04-15 09:13:00,
2013-04-15 05:15:00,35.2,31.7,29.85,NE,35,2.0,0.0,87,0.00,,OVC003,0.00,VWS V14.01,2013-04-15 09:15:00,
2013-04-15 05:18:00,35.3,31.8,29.85,NE,35,2.0,0.0,87,0.00,,OVC003,0.00,VWS V14.01,2013-04-15 09:18:00,
2013-04-15 05:20:00,35.2,32.0,29.85,NE,35,2.0,0.0,88,0.00,,OVC003,0.00,VWS V14.01,2013-04-15 09:20:00,
2013-04-15 05:23:00,35.3,31.8,29.85,NE,35,2.0,0.0,87,0.00,,OVC003,0.00,VWS V14.01,2013-04-15 09:23:00,
2013-04-15 05:25:00,35.2,32.0,29.85,NE,35,2.0,0.0,88,0.00,,OVC003,0.00,VWS V14.01,2013-04-15 09:25:00,
2013-04-15 05:28:00,35.2,32.0,29.85,NE,35,2.0,0.0,88,0.00,,OVC003,0.00,VWS V14.01,2013-04-15 09:28:00,
2013-04-15 05:30:00,35.2,32.0,29.84,NE,35,2.0,0.0,88,0.00,,OVC003,0.00,VWS V14.01,2013-04-15 09:30:00,
2013-04-15 05:33:00,35.2,32.0,29.85,NE,35,2.0,0.0,88,0.00,,OVC003,0.00,VWS V14.01,2013-04-15 09:33:00,
2013-04-15 05:35:00,35.1,31.9,29.84,NE,35,2.0,0.0,88,0.00,,OVC003,0.00,VWS V14.01,2013-04-15 09:35:00,
2013-04-15 05:38:00,35.2,32.0,29.84,NE,35,2.0,0.0,88,0.00,,OVC003,0.00,VWS V14.01,2013-04-15 09:38:00,
2013-04-15 05:40:00,35.1,31.9,29.84,NE,35,2.0,0.0,88,0.00,,OVC003,0.00,VWS V14.01,2013-04-15 09:40:00,
2013-04-15 05:43:00,35.1,31.9,29.84,NE,35,2.0,0.0,88,0.00,,OVC003,0.00,VWS V14.01,2013-04-15 09:43:00,
2013-04-15 05:45:00,35.1,31.9,29.84,NE,35,2.0,0.0,88,0.00,,OVC003,0.00,VWS V14.01,2013-04-15 09:45:00,
2013-04-15 05:48:00,35.1,31.9,29.84,NE,35,2.0,0.0,88,0.00,,OVC003,0.00,VWS V14.01,2013-04-15 09:48:00,
2013-04-15 05:50:00,35.0,31.5,29.84,NE,35,2.0,0.0,87,0.00,,OVC003,0.00,VWS V14.01,2013-04-15 09:50:00,
2013-04-15 05:53:00,35.1,31.9,29.84,NE,35,2.0,0.0,88,0.00,,OVC003,0.00,VWS V14.01,2013-04-15 09:53:00,
2013-04-15 05:55:00,34.9,31.7,29.84,NE,35,2.0,0.0,88,0.00,,OVC003,0.00,VWS V14.01,2013-04-15 09:55:00,
2013-04-15 05:59:00,35.0,31.8,29.84,NE,35,2.0,0.0,88,0.00,,OVC003,0.00,VWS V14.01,2013-04-15 09:59:00,
2013-04-15 06:00:00,34.8,31.6,29.84,NE,35,2.0,0.0,88,0.00,,OVC003,0.00,VWS V14.01,2013-04-15 10:00:00,
2013-04-15 06:04:00,34.9,31.7,29.84,NE,35,2.0,0.0,88,0.00,,OVC003,0.00,VWS V14.01,2013-04-15 10:04:00,
2013-04-15 06:05:00,34.7,31.5,29.84,NE,35,2.0,0.0,88,0.00,,OVC003,0.00,VWS V14.01,2013-04-15 10:05:00,
2013-04-15 06:09:00,34.8,31.6,29.84,NE,35,2.0,0.0,88,0.00,,OVC003,0.00,VWS V14.01,2013-04-15 10:09:00,
2013-04-15 06:10:00,34.6,31.4,29.84,NE,35,2.0,0.0,88,0.00,,OVC003,0.00,VWS V14.01,2013-04-15 10:10:00,
2013-04-15 06:14:00,34.7,31.5,29.84,NE,35,2.0,0.0,88,0.00,,OVC003,0.00,VWS V14.01,2013-04-15 10:14:00,
2013-04-15 06:15:00,34.4,31.2,29.84,NE,35,2.0,0.0,88,0.00,,OVC003,0.00,VWS V14.01,2013-04-15 10:15:00,
2013-04-15 06:19:00,34.6,31.4,29.84,NE,35,2.0,0.0,88,0.00,,OVC003,0.00,VWS V14.01,2013-04-15 10:19:00,
2013-04-15 06:20:00,34.4,31.2,29.84,NE,35,2.0,0.0,88,0.00,,OVC003,0.00,VWS V14.01,2013-04-15 10:20:00,
2013-04-15 06:24:00,34.4,31.2,29.84,NE,35,2.0,0.0,88,0.00,,OVC003,0.00,VWS V14.01,2013-04-15 10:24:00,
2013-04-15 06:25:00,34.4,31.2,29.84,NE,35,2.0,0.0,88,0.00,,OVC003,0.00,VWS V14.01,2013-04-15 10:25:00,
2013-04-15 06:29:00,34.4,31.2,29.84,NE,35,2.0,0.0,88,0.00,,OVC003,0.00,VWS V14.01,2013-04-15 10:29:00,
2013-04-15 06:30:00,34.4,31.5,29.83,NE,35,2.0,0.0,89,0.00,,OVC003,0.00,VWS V14.01,2013-04-15 10:30:00,
2013-04-15 06:34:00,34.4,31.2,29.84,NE,35,2.0,0.0,88,0.00,,OVC003,0.00,VWS V14.01,2013-04-15 10:34:00,
2013-04-15 06:35:00,34.4,31.5,29.83,NE,35,2.0,0.0,89,0.00,,OVC003,0.00,VWS V14.01,2013-04-15 10:35:00,
2013-04-15 06:39:00,34.4,31.5,29.83,NE,35,2.0,0.0,89,0.00,,OVC003,0.00,VWS V14.01,2013-04-15 10:39:00,
2013-04-15 06:40:00,34.4,31.5,29.83,NE,35,2.0,0.0,89,0.00,,OVC003,0.00,VWS V14.01,2013-04-15 10:40:00,
2013-04-15 06:44:00,34.4,31.2,29.83,NE,35,2.0,0.0,88,0.00,,OVC003,0.00,VWS V14.01,2013-04-15 10:44:00,
2013-04-15 06:45:00,34.4,31.5,29.82,NE,35,2.0,0.0,89,0.00,,OVC003,0.00,VWS V14.01,2013-04-15 10:45:00,
2013-04-15 06:49:00,34.4,31.5,29.83,NE,35,2.0,0.0,89,0.00,,OVC003,0.00,VWS V14.01,2013-04-15 10:49:00,
2013-04-15 06:50:00,34.6,31.7,29.82,NE,35,2.0,0.0,89,0.00,,OVC003,0.00,VWS V14.01,2013-04-15 10:50:00,
2013-04-15 06:54:00,34.5,31.6,29.82,NE,35,2.0,0.0,89,0.00,,OVC003,0.00,VWS V14.01,2013-04-15 10:54:00,
2013-04-15 06:55:00,34.7,31.8,29.82,NE,35,2.0,0.0,89,0.00,,OVC003,0.00,VWS V14.01,2013-04-15 10:55:00,
2013-04-15 06:59:00,34.6,31.7,29.82,NE,35,2.0,0.0,89,0.00,,OVC003,0.00,VWS V14.01,2013-04-15 10:59:00,
2013-04-15 07:00:00,34.9,32.0,29.82,NE,35,2.0,0.0,89,0.00,,OVC003,0.00,VWS V14.01,2013-04-15 11:00:00,
2013-04-15 07:04:00,34.8,31.9,29.82,NE,35,2.0,0.0,89,0.00,,OVC003,0.00,VWS V14.01,2013-04-15 11:04:00,
2013-04-15 07:05:00,35.5,32.9,29.82,NE,35,2.0,2.0,90,0.00,,OVC003,0.00,VWS V14.01,2013-04-15 11:05:00,
2013-04-15 07:10:00,35.2,32.6,29.82,NE,35,2.0,2.0,90,0.00,,OVC003,0.00,VWS V14.01,2013-04-15 11:10:00,
2013-04-15 07:15:00,35.7,33.1,29.82,NE,35,2.0,0.0,90,0.00,,OVC003,0.00,VWS V14.01,2013-04-15 11:15:00,
2013-04-15 07:20:00,36.2,33.3,29.82,NE,35,2.0,0.0,89,0.00,,OVC003,0.00,VWS V14.01,2013-04-15 11:20:00,
2013-04-15 07:25:00,36.7,33.8,29.82,SE,141,3.0,3.0,89,0.00,,OVC003,0.00,VWS V14.01,2013-04-15 11:25:00,
2013-04-15 07:30:00,37.3,34.4,29.82,SE,141,2.0,2.0,89,0.00,,OVC003,0.00,VWS V14.01,2013-04-15 11:30:00,
2013-04-15 07:35:00,37.9,35.0,29.82,SE,141,2.0,0.0,89,0.00,,OVC003,0.00,VWS V14.01,2013-04-15 11:35:00,
2013-04-15 07:40:00,38.3,35.1,29.82,SE,141,2.0,0.0,88,0.00,,OVC003,0.00,VWS V14.01,2013-04-15 11:40:00,
2013-04-15 07:45:00,38.6,35.4,29.82,SE,141,2.0,0.0,88,0.00,,OVC003,0.00,VWS V14.01,2013-04-15 11:45:00,
2013-04-15 07:50:00,38.8,35.6,29.82,SE,141,2.0,0.0,88,0.00,,OVC003,0.00,VWS V14.01,2013-04-15 11:50:00,
2013-04-15 07:55:00,39.1,35.6,29.82,SE,141,2.0,0.0,87,0.00,,OVC003,0.00,VWS V14.01,2013-04-15 11:55:00,
2013-04-15 07:56:00,39.0,35.5,29.82,SE,141,2.0,0.0,87,0.00,,OVC003,0.00,VWS V14.01,2013-04-15 11:56:00,
2013-04-15 08:00:00,39.3,35.8,29.82,SE,141,2.0,2.0,87,0.00,,OVC003,0.00,VWS V14.01,2013-04-15 12:00:00,
2013-04-15 08:02:00,39.1,35.6,29.82,SE,141,2.0,0.0,87,0.00,,OVC003,0.00,VWS V14.01,2013-04-15 12:02:00,
2013-04-15 08:05:00,39.6,36.3,29.82,SE,141,2.0,2.0,88,0.00,,OVC003,0.00,VWS V14.01,2013-04-15 12:05:00,
2013-04-15 08:07:00,39.3,35.8,29.82,SE,141,2.0,2.0,87,0.00,,OVC003,0.00,VWS V14.01,2013-04-15 12:07:00,
2013-04-15 08:10:00,39.9,36.3,29.82,SE,141,2.0,0.0,87,0.00,,OVC003,0.00,VWS V14.01,2013-04-15 12:10:00,
2013-04-15 08:12:00,39.6,36.3,29.82,SE,141,2.0,2.0,88,0.00,,OVC003,0.00,VWS V14.01,2013-04-15 12:12:00,
2013-04-15 08:15:00,40.4,36.8,29.82,SE,141,2.0,2.0,87,0.00,,OVC003,0.00,VWS V14.01,2013-04-15 12:15:00,
2013-04-15 08:17:00,39.9,36.3,29.82,SE,141,2.0,0.0,87,0.00,,OVC003,0.00,VWS V14.01,2013-04-15 12:17:00,
2013-04-15 08:20:00,41.0,37.7,29.82,SE,141,2.0,2.0,88,0.00,,OVC003,0.00,VWS V14.01,2013-04-15 12:20:00,
2013-04-15 08:22:00,40.4,36.8,29.82,SE,141,2.0,2.0,87,0.00,,OVC003,0.00,VWS V14.01,2013-04-15 12:22:00,
2013-04-15 08:25:00,41.8,38.5,29.82,SSE,149,2.0,2.0,88,0.00,,OVC003,0.00,VWS V14.01,2013-04-15 12:25:00,
2013-04-15 08:27:00,41.0,37.7,29.82,SE,141,2.0,2.0,88,0.00,,OVC003,0.00,VWS V14.01,2013-04-15 12:27:00,
2013-04-15 08:30:00,42.5,38.9,29.82,SSE,150,2.0,2.0,87,0.00,,OVC003,0.00,VWS V14.01,2013-04-15 12:30:00,
2013-04-15 08:33:00,41.8,38.5,29.82,SSE,149,2.0,2.0,88,0.00,,OVC003,0.00,VWS V14.01,2013-04-15 12:33:00,
2013-04-15 08:35:00,43.3,39.7,29.82,SW,229,2.0,3.0,87,0.00,,OVC003,0.00,VWS V14.01,2013-04-15 12:35:00,
2013-04-15 08:38:00,42.5,38.9,29.82,SSE,150,2.0,2.0,87,0.00,,OVC003,0.00,VWS V14.01,2013-04-15 12:38:00,
2013-04-15 08:40:00,44.2,40.3,29.82,South,171,4.0,4.0,86,0.00,,OVC003,0.00,VWS V14.01,2013-04-15 12:40:00,
2013-04-15 08:43:00,43.4,39.8,29.82,SW,229,2.0,0.0,87,0.00,,OVC003,0.00,VWS V14.01,2013-04-15 12:43:00,
2013-04-15 08:45:00,45.3,40.8,29.81,SE,138,2.0,4.0,84,0.00,,OVC003,0.00,VWS V14.01,2013-04-15 12:45:00,
2013-04-15 08:48:00,44.4,40.5,29.82,South,171,2.0,2.0,86,0.00,,OVC003,0.00,VWS V14.01,2013-04-15 12:48:00,
2013-04-15 08:50:00,46.3,41.4,29.81,SE,130,2.0,5.0,83,0.00,,OVC003,0.00,VWS V14.01,2013-04-15 12:50:00,
2013-04-15 08:53:00,45.4,40.9,29.81,ESE,107,3.0,3.0,84,0.00,,OVC003,0.00,VWS V14.01,2013-04-15 12:53:00,
2013-04-15 08:55:00,47.2,41.7,29.81,SE,132,2.0,3.0,81,0.00,,OVC003,0.00,VWS V14.01,2013-04-15 12:55:00,
2013-04-15 08:58:00,46.5,41.3,29.81,SE,132,4.0,4.0,82,0.00,,OVC003,0.00,VWS V14.01,2013-04-15 12:58:00,
2013-04-15 09:00:00,47.8,41.6,29.81,SE,136,4.0,5.0,79,0.00,,OVC003,0.00,VWS V14.01,2013-04-15 13:00:00,
2013-04-15 09:04:00,47.3,41.8,29.81,SE,132,3.0,3.0,81,0.00,,OVC003,0.00,VWS V14.01,2013-04-15 13:04:00,
2013-04-15 09:05:00,48.3,41.8,29.81,SSE,147,2.0,3.0,78,0.00,,OVC003,0.00,VWS V14.01,2013-04-15 13:05:00,
2013-04-15 09:09:00,48.0,41.8,29.81,SSE,152,3.0,3.0,79,0.00,,OVC003,0.00,VWS V14.01,2013-04-15 13:09:00,
2013-04-15 09:10:00,48.5,42.0,29.81,SE,128,2.0,2.0,78,0.00,,OVC003,0.00,VWS V14.01,2013-04-15 13:10:00,
2013-04-15 09:14:00,48.4,41.9,29.81,SE,126,3.0,3.0,78,0.00,,OVC003,0.00,VWS V14.01,2013-04-15 13:14:00,
2013-04-15 09:15:00,48.8,42.3,29.81,SE,130,3.0,5.0,78,0.00,,OVC003,0.00,VWS V14.01,2013-04-15 13:15:00,
2013-04-15 09:19:00,48.6,42.1,29.81,SW,224,5.0,5.0,78,0.00,,OVC003,0.00,VWS V14.01,2013-04-15 13:19:00,
2013-04-15 09:20:00,49.2,42.6,29.81,WSW,257,6.0,6.0,78,0.00,,OVC003,0.00,VWS V14.01,2013-04-15 13:20:00,
2013-04-15 09:25:00,49.0,42.5,29.81,SSE,153,3.0,3.0,78,0.00,,OVC003,0.00,VWS V14.01,2013-04-15 13:25:00,
2013-04-15 09:30:00,49.4,42.5,29.81,SSE,159,4.0,4.0,77,0.00,,OVC003,0.00,VWS V14.01,2013-04-15 13:30:00,
2013-04-15 09:35:00,49.8,42.5,29.81,SSE,152,2.0,3.0,76,0.00,,OVC003,0.00,VWS V14.01,2013-04-15 13:35:00,
2013-04-15 09:40:00,50.2,42.9,29.80,SSE,152,3.0,4.0,76,0.00,,OVC003,0.00,VWS V14.01,2013-04-15 13:40:00,
2013-04-15 09:45:00,50.3,43.0,29.80,SE,131,3.0,6.0,76,0.00,,OVC003,0.00,VWS V14.01,2013-04-15 13:45:00,
2013-04-15 09:50:00,50.4,43.1,29.80,SSE,160,2.0,3.0,76,0.00,,OVC003,0.00,VWS V14.01,2013-04-15 13:50:00,
2013-04-15 09:55:00,50.7,43.4,29.80,SSE,164,2.0,2.0,76,0.00,,OVC003,0.00,VWS V14.01,2013-04-15 13:55:00,
2013-04-15 09:56:00,50.4,43.1,29.80,SSE,159,4.0,4.0,76,0.00,,OVC003,0.00,VWS V14.01,2013-04-15 13:56:00,
2013-04-15 10:00:00,51.0,43.7,29.80,South,186,4.0,7.0,76,0.00,,OVC003,0.00,VWS V14.01,2013-04-15 14:00:00,
2013-04-15 10:01:00,50.6,43.7,29.80,South,191,2.0,2.0,77,0.00,,OVC003,0.00,VWS V14.01,2013-04-15 14:01:00,
2013-04-15 10:05:00,51.4,44.1,29.80,SE,139,5.0,5.0,76,0.00,,OVC003,0.00,VWS V14.01,2013-04-15 14:05:00,
2013-04-15 10:06:00,50.9,43.6,29.80,SE,135,6.0,7.0,76,0.00,,OVC003,0.00,VWS V14.01,2013-04-15 14:06:00,
2013-04-15 10:10:00,51.9,44.2,29.80,South,180,4.0,6.0,75,0.00,,OVC003,0.00,VWS V14.01,2013-04-15 14:10:00,
2013-04-15 10:11:00,51.3,44.0,29.80,SSW,209,4.0,5.0,76,0.00,,OVC003,0.00,VWS V14.01,2013-04-15 14:11:00,
2013-04-15 10:15:00,52.6,44.6,29.80,SW,220,4.0,6.0,74,0.00,,OVC003,0.00,VWS V14.01,2013-04-15 14:15:00,
2013-04-15 10:16:00,51.7,44.0,29.80,South,191,5.0,6.0,75,0.00,,OVC003,0.00,VWS V14.01,2013-04-15 14:16:00,
2013-04-15 10:20:00,53.1,44.7,29.80,SW,226,6.0,8.0,73,0.00,,OVC003,0.00,VWS V14.01,2013-04-15 14:20:00,
2013-04-15 10:22:00,52.5,44.5,29.80,SW,224,6.0,6.0,74,0.00,,OVC003,0.00,VWS V14.01,2013-04-15 14:22:00,
2013-04-15 10:25:00,53.6,45.2,29.80,SW,222,6.0,9.0,73,0.00,,OVC003,0.00,VWS V14.01,2013-04-15 14:25:00,
2013-04-15 10:28:00,53.1,44.7,29.80,SW,226,6.0,8.0,73,0.00,,OVC003,0.00,VWS V14.01,2013-04-15 14:28:00,
2013-04-15 10:30:00,54.1,45.7,29.80,South,172,5.0,9.0,73,0.00,,OVC003,0.00,VWS V14.01,2013-04-15 14:30:00,
2013-04-15 10:33:00,53.7,45.3,29.80,WSW,254,6.0,9.0,73,0.00,,OVC003,0.00,VWS V14.01,2013-04-15 14:33:00,
2013-04-15 10:35:00,54.5,45.7,29.80,NNE,16,2.0,11.0,72,0.00,,OVC003,0.00,VWS V14.01,2013-04-15 14:35:00,
2013-04-15 10:39:00,54.2,45.8,29.80,South,184,3.0,4.0,73,0.00,,OVC003,0.00,VWS V14.01,2013-04-15 14:39:00,
2013-04-15 10:40:00,54.8,46.0,29.80,SSW,197,8.0,12.0,72,0.00,,OVC003,0.00,VWS V14.01,2013-04-15 14:40:00,
2013-04-15 10:44:00,54.6,46.1,29.80,SSW,193,6.0,9.0,73,0.00,,OVC003,0.00,VWS V14.01,2013-04-15 14:44:00,
2013-04-15 10:45:00,55.1,46.2,29.80,South,176,3.0,8.0,72,0.00,,OVC003,0.00,VWS V14.01,2013-04-15 14:45:00,
2013-04-15 10:49:00,54.9,46.1,29.80,SE,145,5.0,6.0,72,0.00,,OVC003,0.00,VWS V14.01,2013-04-15 14:49:00,
2013-04-15 10:50:00,55.5,46.6,29.80,SSW,210,11.0,11.0,72,0.00,,OVC003,0.00,VWS V14.01,2013-04-15 14:50:00,
2013-04-15 10:54:00,55.3,46.4,29.80,SW,236,6.0,6.0,72,0.00,,OVC003,0.00,VWS V14.01,2013-04-15 14:54:00,
2013-04-15 10:55:00,55.9,47.0,29.80,SSW,195,4.0,9.0,72,0.00,,OVC003,0.00,VWS V14.01,2013-04-15 14:55:00,
2013-04-15 10:59:00,55.7,46.5,29.80,South,180,6.0,9.0,71,0.00,,OVC003,0.00,VWS V14.01,2013-04-15 14:59:00,
2013-04-15 11:00:00,56.3,47.0,29.80,SW,231,5.0,7.0,71,0.00,,OVC003,0.00,VWS V14.01,2013-04-15 15:00:00,
2013-04-15 11:04:00,56.1,47.2,29.80,SSW,199,6.0,6.0,72,0.00,,OVC003,0.00,VWS V14.01,2013-04-15 15:04:00,
2013-04-15 11:05:00,56.6,47.3,29.80,SSW,203,6.0,6.0,71,0.00,,OVC003,0.00,VWS V14.01,2013-04-15 15:05:00,
2013-04-15 11:09:00,56.5,47.2,29.80,SW,217,3.0,4.0,71,0.00,,OVC003,0.00,VWS V14.01,2013-04-15 15:09:00,
2013-04-15 11:10:00,56.9,47.2,29.80,South,185,4.0,7.0,70,0.00,,OVC003,0.00,VWS V14.01,2013-04-15 15:10:00,
2013-04-15 11:15:00,56.8,47.5,29.80,South,191,7.0,7.0,71,0.00,,OVC003,0.00,VWS V14.01,2013-04-15 15:15:00,
2013-04-15 11:20:00,57.0,47.7,29.80,South,191,4.0,5.0,71,0.00,,OVC003,0.00,VWS V14.01,2013-04-15 15:20:00,
2013-04-15 11:25:00,57.5,48.2,29.80,SW,222,4.0,5.0,71,0.00,,OVC003,0.00,VWS V14.01,2013-04-15 15:25:00,
2013-04-15 11:30:00,57.9,47.8,29.80,SSE,159,4.0,7.0,69,0.00,,OVC003,0.00,VWS V14.01,2013-04-15 15:30:00,
2013-04-15 11:35:00,58.1,48.0,29.80,SW,222,6.0,7.0,69,0.00,,OVC003,0.00,VWS V14.01,2013-04-15 15:35:00,
2013-04-15 11:40:00,58.1,48.4,29.80,SSW,211,3.0,4.0,70,0.00,,OVC003,0.00,VWS V14.01,2013-04-15 15:40:00,
2013-04-15 11:45:00,58.1,48.0,29.80,WSW,241,6.0,9.0,69,0.00,,OVC003,0.00,VWS V14.01,2013-04-15 15:45:00,
2013-04-15 11:46:00,58.1,48.0,29.80,SSW,199,7.0,10.0,69,0.00,,OVC003,0.00,VWS V14.01,2013-04-15 15:46:00,
2013-04-15 11:50:00,58.2,48.5,29.80,SSW,202,5.0,5.0,70,0.00,,OVC003,0.00,VWS V14.01,2013-04-15 15:50:00,
2013-04-15 11:51:00,58.1,48.0,29.80,SW,214,5.0,9.0,69,0.00,,OVC003,0.00,VWS V14.01,2013-04-15 15:51:00,
2013-04-15 11:55:00,58.3,48.6,29.80,SW,223,2.0,7.0,70,0.00,,OVC003,0.00,VWS V14.01,2013-04-15 15:55:00,
2013-04-15 11:57:00,58.2,48.5,29.80,SSW,202,5.0,5.0,70,0.00,,OVC003,0.00,VWS V14.01,2013-04-15 15:57:00,
2013-04-15 12:00:00,58.5,48.8,29.79,SW,214,3.0,7.0,70,0.00,,OVC003,0.00,VWS V14.01,2013-04-15 16:00:00,
2013-04-15 12:02:00,58.3,48.6,29.80,SW,223,4.0,7.0,70,0.00,,OVC003,0.00,VWS V14.01,2013-04-15 16:02:00,
2013-04-15 12:05:00,58.8,49.0,29.79,SW,215,3.0,6.0,70,0.00,,OVC003,0.00,VWS V14.01,2013-04-15 16:05:00,
2013-04-15 12:07:00,58.5,48.8,29.79,SW,214,7.0,7.0,70,0.00,,OVC003,0.00,VWS V14.01,2013-04-15 16:07:00,
2013-04-15 12:10:00,59.0,49.2,29.79,SW,222,3.0,7.0,70,0.00,,OVC003,0.00,VWS V14.01,2013-04-15 16:10:00,
2013-04-15 12:13:00,58.8,49.0,29.79,SW,215,3.0,6.0,70,0.00,,OVC003,0.00,VWS V14.01,2013-04-15 16:13:00,
2013-04-15 12:15:00,59.4,49.2,29.78,South,170,5.0,10.0,69,0.00,,OVC003,0.00,VWS V14.01,2013-04-15 16:15:00,
2013-04-15 12:18:00,59.0,49.2,29.79,SW,222,3.0,7.0,70,0.00,,OVC003,0.00,VWS V14.01,2013-04-15 16:18:00,
2013-04-15 12:20:00,59.7,49.5,29.78,South,184,4.0,9.0,69,0.00,,OVC003,0.00,VWS V14.01,2013-04-15 16:20:00,
2013-04-15 12:23:00,59.4,49.2,29.78,South,170,5.0,10.0,69,0.00,,OVC003,0.00,VWS V14.01,2013-04-15 16:23:00,
2013-04-15 12:25:00,60.3,50.1,29.78,SW,230,4.0,10.0,69,0.00,,OVC003,0.00,VWS V14.01,2013-04-15 16:25:00,
2013-04-15 12:28:00,59.8,50.4,29.78,South,187,2.0,2.0,71,0.00,,OVC003,0.00,VWS V14.01,2013-04-15 16:28:00,
2013-04-15 12:30:00,60.8,50.2,29.80,SW,221,5.0,7.0,68,0.00,,OVC003,0.00,VWS V14.01,2013-04-15 16:30:00,
2013-04-15 12:33:00,60.4,50.2,29.78,SSW,210,2.0,4.0,69,0.00,,OVC003,0.00,VWS V14.01,2013-04-15 16:33:00,
2013-04-15 12:35:00,60.8,49.8,29.80,WSW,238,4.0,10.0,67,0.00,,OVC003,0.00,VWS V14.01,2013-04-15 16:35:00,
2013-04-15 12:38:00,60.8,49.8,29.80,WSW,252,7.0,10.0,67,0.00,,OVC003,0.00,VWS V14.01,2013-04-15 16:38:00,
2013-04-15 12:40:00,60.8,50.2,29.80,SSE,166,2.0,6.0,68,0.00,,OVC003,0.00,VWS V14.01,2013-04-15 16:40:00,
2013-04-15 12:44:00,60.8,49.8,29.80,SSW,199,6.0,6.0,67,0.00,,OVC003,0.00,VWS V14.01,2013-04-15 16:44:00,
2013-04-15 12:45:00,61.2,50.6,29.81,SSW,202,6.0,6.0,68,0.00,,OVC003,0.00,VWS V14.01,2013-04-15 16:45:00,
2013-04-15 12:49:00,60.9,50.3,29.80,South,184,4.0,4.0,68,0.00,,OVC003,0.00,VWS V14.01,2013-04-15 16:49:00,
2013-04-15 12:50:00,61.5,50.5,29.81,SSW,213,7.0,11.0,67,0.00,,OVC003,0.00,VWS V14.01,2013-04-15 16:50:00,
2013-04-15 12:54:00,61.3,50.7,29.81,SSW,201,7.0,7.0,68,0.00,,OVC003,0.00,VWS V14.01,2013-04-15 16:54:00,
2013-04-15 12:55:00,61.6,50.5,29.81,South,173,3.0,7.0,67,0.00,,OVC003,0.00,VWS V14.01,2013-04-15 16:55:00,
2013-04-15 12:59:00,61.5,50.5,29.81,SSE,147,4.0,5.0,67,0.00,,OVC003,0.00,VWS V14.01,2013-04-15 16:59:00,
2013-04-15 13:00:00,61.7,51.0,29.78,South,176,2.0,13.0,68,0.00,,OVC003,0.00,VWS V14.01,2013-04-15 17:00:00,
2013-04-15 13:04:00,61.6,50.5,29.81,WNW,303,2.0,13.0,67,0.00,,OVC003,0.00,VWS V14.01,2013-04-15 17:04:00,
2013-04-15 13:05:00,62.1,51.4,29.78,SSE,151,3.0,9.0,68,0.00,,OVC003,0.00,VWS V14.01,2013-04-15 17:05:00,
2013-04-15 13:09:00,61.8,50.7,29.78,SSW,207,3.0,9.0,67,0.00,,OVC003,0.00,VWS V14.01,2013-04-15 17:09:00,
2013-04-15 13:10:00,62.3,50.8,29.78,SSW,210,8.0,10.0,66,0.00,,OVC003,0.00,VWS V14.01,2013-04-15 17:10:00,
2013-04-15 13:15:00,62.3,51.2,29.78,South,172,6.0,10.0,67,0.00,,OVC003,0.00,VWS V14.01,2013-04-15 17:15:00,
2013-04-15 13:20:00,62.3,51.2,29.78,SW,228,8.0,8.0,67,0.00,,OVC003,0.00,VWS V14.01,2013-04-15 17:20:00,
2013-04-15 13:21:00,62.3,51.2,29.78,SSW,201,4.0,6.0,67,0.00,,OVC003,0.00,VWS V14.01,2013-04-15 17:21:00,
2013-04-15 13:23:00,62.4,51.3,29.78,WSW,249,8.0,8.0,67,0.00,,OVC003,0.00,VWS V14.01,2013-04-15 17:23:00,
2013-04-15 13:25:00,62.5,51.0,29.78,South,182,4.0,15.0,66,0.00,,OVC003,0.00,VWS V14.01,2013-04-15 17:25:00,
2013-04-15 13:28:00,62.6,51.5,29.78,SSW,199,12.0,14.0,67,0.00,,OVC003,0.00,VWS V14.01,2013-04-15 17:28:00,
2013-04-15 13:30:00,62.6,51.1,29.78,SSW,199,9.0,15.0,66,0.00,,OVC003,0.00,VWS V14.01,2013-04-15 17:30:00,
2013-04-15 13:31:00,62.6,51.1,29.78,NNW,347,11.0,15.0,66,0.00,,OVC003,0.00,VWS V14.01,2013-04-15 17:31:00,
2013-04-15 13:35:00,63.0,51.9,29.78,SSE,147,5.0,11.0,67,0.00,,OVC003,0.00,VWS V14.01,2013-04-15 17:35:00,
2013-04-15 13:36:00,62.6,51.1,29.78,WSW,238,7.0,11.0,66,0.00,,OVC003,0.00,VWS V14.01,2013-04-15 17:36:00,
2013-04-15 13:40:00,63.1,51.6,29.78,SSE,163,4.0,11.0,66,0.00,,OVC003,0.00,VWS V14.01,2013-04-15 17:40:00,
2013-04-15 13:41:00,62.9,51.4,29.78,ESE,116,4.0,11.0,66,0.00,,OVC003,0.00,VWS V14.01,2013-04-15 17:41:00,
2013-04-15 13:45:00,63.3,51.8,29.78,SSW,207,8.0,12.0,66,0.00,,OVC003,0.00,VWS V14.01,2013-04-15 17:45:00,
2013-04-15 13:47:00,63.1,51.6,29.78,WSW,258,7.0,11.0,66,0.00,,OVC003,0.00,VWS V14.01,2013-04-15 17:47:00,
2013-04-15 13:50:00,63.4,51.9,29.78,SW,230,6.0,12.0,66,0.00,,OVC003,0.00,VWS V14.01,2013-04-15 17:50:00,
2013-04-15 13:52:00,63.3,51.8,29.78,WSW,253,6.0,12.0,66,0.00,,OVC003,0.00,VWS V14.01,2013-04-15 17:52:00,
2013-04-15 13:55:00,63.7,52.5,29.78,South,172,7.0,9.0,67,0.00,,OVC003,0.00,VWS V14.01,2013-04-15 17:55:00,
2013-04-15 13:57:00,63.4,51.9,29.78,SE,143,7.0,12.0,66,0.00,,OVC003,0.00,VWS V14.01,2013-04-15 17:57:00,
2013-04-15 14:00:00,64.1,52.5,29.78,SSW,197,5.0,8.0,66,0.00,,OVC003,0.00,VWS V14.01,2013-04-15 18:00:00,
2013-04-15 14:02:00,63.6,52.0,29.78,SW,214,4.0,9.0,66,0.00,,OVC003,0.00,VWS V14.01,2013-04-15 18:02:00,
2013-04-15 14:05:00,64.4,52.4,29.78,South,189,7.0,12.0,65,0.00,,OVC003,0.00,VWS V14.01,2013-04-15 18:05:00,
2013-04-15 14:07:00,64.1,52.5,29.78,SW,233,8.0,8.0,66,0.00,,OVC003,0.00,VWS V14.01,2013-04-15 18:07:00,
2013-04-15 14:10:00,64.4,52.8,29.78,WSW,243,6.0,7.0,66,0.00,,OVC003,0.00,VWS V14.01,2013-04-15 18:10:00,
2013-04-15 14:12:00,64.4,52.8,29.78,SSE,157,6.0,12.0,66,0.00,,OVC003,0.00,VWS V14.01,2013-04-15 18:12:00,
2013-04-15 14:15:00,64.6,53.0,29.78,SW,216,6.0,11.0,66,0.00,,OVC003,0.00,VWS V14.01,2013-04-15 18:15:00,
2013-04-15 14:17:00,64.4,52.8,29.78,WSW,243,7.0,7.0,66,0.00,,OVC003,0.00,VWS V14.01,2013-04-15 18:17:00,
2013-04-15 14:20:00,64.7,53.1,29.78,WSW,243,6.0,11.0,66,0.00,,OVC003,0.00,VWS V14.01,2013-04-15 18:20:00,
2013-04-15 14:22:00,64.6,53.0,29.78,SW,222,7.0,11.0,66,0.00,,OVC003,0.00,VWS V14.01,2013-04-15 18:22:00,
2013-04-15 14:25:00,64.8,53.2,29.78,SSW,211,5.0,10.0,66,0.00,,OVC003,0.00,VWS V14.01,2013-04-15 18:25:00,
2013-04-15 14:27:00,64.7,53.1,29.78,WSW,243,6.0,11.0,66,0.00,,OVC003,0.00,VWS V14.01,2013-04-15 18:27:00,
2013-04-15 14:29:00,64.7,52.7,29.78,WSW,249,3.0,6.0,65,0.00,,OVC003,0.00,VWS V14.01,2013-04-15 18:29:00,
2013-04-15 14:30:00,64.7,53.1,29.78,South,187,7.0,7.0,66,0.00,,OVC003,0.00,VWS V14.01,2013-04-15 18:30:00,
2013-04-15 14:33:00,64.8,53.2,29.78,SSW,211,5.0,10.0,66,0.00,,OVC003,0.00,VWS V14.01,2013-04-15 18:33:00,
2013-04-15 14:35:00,65.1,53.1,29.78,SSW,193,11.0,14.0,65,0.00,,OVC003,0.00,VWS V14.01,2013-04-15 18:35:00,
2013-04-15 14:37:00,64.9,53.3,29.78,SSW,210,8.0,9.0,66,0.00,,OVC003,0.00,VWS V14.01,2013-04-15 18:37:00,
2013-04-15 14:40:00,65.1,53.1,29.78,SW,228,6.0,11.0,65,0.00,,OVC003,0.00,VWS V14.01,2013-04-15 18:40:00,
2013-04-15 14:45:00,65.0,53.0,29.78,SSE,151,3.0,10.0,65,0.00,,OVC003,0.00,VWS V14.01,2013-04-15 18:45:00,
2013-04-15 14:50:00,64.9,52.9,29.78,SSW,208,6.0,9.0,65,0.00,,OVC003,0.00,VWS V14.01,2013-04-15 18:50:00,
2013-04-15 14:55:00,64.9,53.3,29.77,West,265,13.0,13.0,66,0.00,,OVC003,0.00,VWS V14.01,2013-04-15 18:55:00,
2013-04-15 15:00:00,65.0,53.4,29.77,SSW,194,5.0,6.0,66,0.00,,OVC003,0.00,VWS V14.01,2013-04-15 19:00:00,
2013-04-15 15:05:00,64.9,53.3,29.77,WSW,252,6.0,16.0,66,0.00,,OVC003,0.00,VWS V14.01,2013-04-15 19:05:00,
2013-04-15 15:10:00,64.8,53.2,29.78,South,181,4.0,5.0,66,0.00,,OVC003,0.00,VWS V14.01,2013-04-15 19:10:00,
2013-04-15 15:15:00,64.7,53.1,29.78,ESE,117,5.0,10.0,66,0.00,,OVC003,0.00,VWS V14.01,2013-04-15 19:15:00,
2013-04-15 15:20:00,64.6,53.4,29.78,WSW,256,4.0,8.0,67,0.00,,OVC003,0.00,VWS V14.01,2013-04-15 19:20:00,
2013-04-15 15:25:00,64.4,53.2,29.78,SSW,212,10.0,12.0,67,0.00,,OVC003,0.00,VWS V14.01,2013-04-15 19:25:00,
2013-04-15 15:30:00,64.3,53.1,29.78,SE,144,4.0,6.0,67,0.00,,OVC003,0.00,VWS V14.01,2013-04-15 19:30:00,
2013-04-15 15:35:00,64.2,53.0,29.78,SSW,197,7.0,10.0,67,0.00,,OVC003,0.00,VWS V14.01,2013-04-15 19:35:00,
2013-04-15 15:36:00,64.2,53.0,29.78,SSW,196,5.0,9.0,67,0.00,,OVC003,0.00,VWS V14.01,2013-04-15 19:36:00,
2013-04-15 15:40:00,64.2,53.4,29.78,WSW,257,2.0,6.0,68,0.00,,OVC003,0.00,VWS V14.01,2013-04-15 19:40:00,
2013-04-15 15:41:00,64.2,53.0,29.78,SW,228,5.0,10.0,67,0.00,,OVC003,0.00,VWS V14.01,2013-04-15 19:41:00,
2013-04-15 15:45:00,64.3,53.5,29.78,SSW,207,4.0,7.0,68,0.00,,OVC003,0.00,VWS V14.01,2013-04-15 19:45:00,
2013-04-15 15:48:00,64.2,53.4,29.78,WSW,257,2.0,6.0,68,0.00,,OVC003,0.00,VWS V14.01,2013-04-15 19:48:00,
2013-04-15 15:50:00,64.5,53.7,29.78,South,183,6.0,6.0,68,0.00,,OVC003,0.00,VWS V14.01,2013-04-15 19:50:00,
2013-04-15 15:53:00,64.3,53.5,29.78,SSW,207,4.0,7.0,68,0.00,,OVC003,0.00,VWS V14.01,2013-04-15 19:53:00,
2013-04-15 15:55:00,64.7,53.5,29.78,SSE,168,3.0,8.0,67,0.00,,OVC003,0.00,VWS V14.01,2013-04-15 19:55:00,
2013-04-15 15:57:00,64.5,53.7,29.78,SW,225,4.0,6.0,68,0.00,,OVC003,0.00,VWS V14.01,2013-04-15 19:57:00,
2013-04-15 16:00:00,64.6,53.4,29.78,SSW,202,6.0,8.0,67,0.00,,OVC003,0.00,VWS V14.01,2013-04-15 20:00:00,
2013-04-15 16:02:00,64.6,53.4,29.78,SSE,168,4.0,8.0,67,0.00,,OVC003,0.00,VWS V14.01,2013-04-15 20:02:00,
2013-04-15 16:03:00,64.7,53.9,29.78,WSW,246,6.0,6.0,68,0.00,,OVC003,0.00,VWS V14.01,2013-04-15 20:03:00,
2013-04-15 16:04:00,64.7,53.9,29.78,SSW,193,2.0,7.0,68,0.00,,OVC003,0.00,VWS V14.01,2013-04-15 20:04:00,
2013-04-15 16:05:00,65.2,54.0,29.77,SSW,209,4.0,4.0,67,0.00,,OVC003,0.00,VWS V14.01,2013-04-15 20:05:00,
2013-04-15 16:08:00,64.9,53.7,29.77,SSW,202,2.0,4.0,67,0.00,,OVC003,0.00,VWS V14.01,2013-04-15 20:08:00,
2013-04-15 16:09:00,65.0,53.8,29.77,SSW,202,5.0,5.0,67,0.00,,OVC003,0.00,VWS V14.01,2013-04-15 20:09:00,
2013-04-15 16:10:00,65.3,54.1,29.77,SSW,195,5.0,9.0,67,0.00,,OVC003,0.00,VWS V14.01,2013-04-15 20:10:00,
2013-04-15 16:14:00,65.2,54.0,29.77,WSW,246,11.0,11.0,67,0.00,,OVC003,0.00,VWS V14.01,2013-04-15 20:14:00,
2013-04-15 16:15:00,65.4,54.2,29.76,SSW,199,3.0,6.0,67,0.00,,OVC003,0.00,VWS V14.01,2013-04-15 20:15:00,
2013-04-15 16:19:00,65.3,54.1,29.77,SW,231,4.0,4.0,67,0.00,,OVC003,0.00,VWS V14.01,2013-04-15 20:19:00,
2013-04-15 16:20:00,65.5,54.3,29.76,ESE,107,3.0,6.0,67,0.00,,OVC003,0.00,VWS V14.01,2013-04-15 20:20:00,
2013-04-15 16:24:00,65.4,54.2,29.76,SSW,201,5.0,5.0,67,0.00,,OVC003,0.00,VWS V14.01,2013-04-15 20:24:00,
2013-04-15 16:25:00,65.5,54.3,29.76,WSW,244,5.0,6.0,67,0.00,,OVC003,0.00,VWS V14.01,2013-04-15 20:25:00,
2013-04-15 16:29:00,65.4,54.2,29.76,South,191,6.0,6.0,67,0.00,,OVC003,0.00,VWS V14.01,2013-04-15 20:29:00,
2013-04-15 16:30:00,65.4,54.2,29.76,WSW,254,7.0,7.0,67,0.00,,OVC003,0.00,VWS V14.01,2013-04-15 20:30:00,
2013-04-15 16:34:00,65.4,54.2,29.76,SSW,205,4.0,5.0,67,0.00,,OVC003,0.00,VWS V14.01,2013-04-15 20:34:00,
2013-04-15 16:35:00,65.4,54.2,29.76,South,186,4.0,11.0,67,0.00,,OVC003,0.00,VWS V14.01,2013-04-15 20:35:00,
2013-04-15 16:39:00,65.4,54.2,29.76,South,184,5.0,11.0,67,0.00,,OVC003,0.00,VWS V14.01,2013-04-15 20:39:00,
2013-04-15 16:40:00,65.3,54.1,29.76,SSE,168,5.0,11.0,67,0.00,,OVC003,0.00,VWS V14.01,2013-04-15 20:40:00,
2013-04-15 16:44:00,65.3,54.1,29.76,WSW,251,12.0,12.0,67,0.00,,OVC003,0.00,VWS V14.01,2013-04-15 20:44:00,
2013-04-15 16:45:00,65.2,54.4,29.76,SW,236,3.0,8.0,68,0.00,,OVC003,0.00,VWS V14.01,2013-04-15 20:45:00,
2013-04-15 16:49:00,65.2,54.0,29.76,WSW,241,5.0,6.0,67,0.00,,OVC003,0.00,VWS V14.01,2013-04-15 20:49:00,
2013-04-15 16:50:00,65.3,54.5,29.76,SW,230,3.0,6.0,68,0.00,,OVC003,0.00,VWS V14.01,2013-04-15 20:50:00,
2013-04-15 16:54:00,65.2,54.4,29.76,SW,222,7.0,7.0,68,0.00,,OVC003,0.00,VWS V14.01,2013-04-15 20:54:00,
2013-04-15 16:55:00,65.4,54.6,29.76,SW,230,6.0,6.0,68,0.00,,OVC003,0.00,VWS V14.01,2013-04-15 20:55:00,
2013-04-15 16:59:00,65.3,54.5,29.76,SW,234,5.0,5.0,68,0.00,,OVC003,0.00,VWS V14.01,2013-04-15 20:59:00,
2013-04-15 17:00:00,65.5,54.3,29.76,SSW,210,8.0,10.0,67,0.00,,OVC003,0.00,VWS V14.01,2013-04-15 21:00:00,
2013-04-15 17:04:00,65.5,54.3,29.76,South,182,4.0,7.0,67,0.00,,OVC003,0.00,VWS V14.01,2013-04-15 21:04:00,
2013-04-15 17:05:00,65.6,54.8,29.76,West,263,5.0,6.0,68,0.00,,OVC003,0.00,VWS V14.01,2013-04-15 21:05:00,
2013-04-15 17:09:00,65.5,54.3,29.76,SSW,211,4.0,6.0,67,0.00,,OVC003,0.00,VWS V14.01,2013-04-15 21:09:00,
2013-04-15 17:10:00,65.6,54.4,29.76,SSW,203,2.0,5.0,67,0.00,,OVC003,0.00,VWS V14.01,2013-04-15 21:10:00,
2013-04-15 17:14:00,65.6,54.4,29.76,SSE,165,3.0,5.0,67,0.00,,OVC003,0.00,VWS V14.01,2013-04-15 21:14:00,
2013-04-15 17:15:00,65.8,54.5,29.75,SSW,213,6.0,9.0,67,0.00,,OVC003,0.00,VWS V14.01,2013-04-15 21:15:00,
2013-04-15 17:20:00,65.7,54.9,29.76,SSW,203,5.0,5.0,68,0.00,,OVC003,0.00,VWS V14.01,2013-04-15 21:20:00,
2013-04-15 17:25:00,65.8,54.5,29.75,SSE,148,2.0,6.0,67,0.00,,OVC003,0.00,VWS V14.01,2013-04-15 21:25:00,
2013-04-15 17:30:00,65.8,54.5,29.75,SW,217,6.0,12.0,67,0.00,,OVC003,0.00,VWS V14.01,2013-04-15 21:30:00,
2013-04-15 17:35:00,65.8,54.5,29.75,South,182,4.0,6.0,67,0.00,,OVC003,0.00,VWS V14.01,2013-04-15 21:35:00,
2013-04-15 17:40:00,65.9,55.0,29.75,SSE,162,6.0,6.0,68,0.00,,OVC003,0.00,VWS V14.01,2013-04-15 21:40:00,
2013-04-15 17:45:00,66.1,54.8,29.75,SSW,197,9.0,11.0,67,0.00,,OVC003,0.00,VWS V14.01,2013-04-15 21:45:00,
2013-04-15 17:50:00,65.9,54.7,29.75,SSW,206,6.0,9.0,67,0.00,,OVC003,0.00,VWS V14.01,2013-04-15 21:50:00,
2013-04-15 17:55:00,65.8,55.0,29.75,SSW,208,5.0,5.0,68,0.00,,OVC003,0.00,VWS V14.01,2013-04-15 21:55:00,
2013-04-15 18:00:00,65.6,54.8,29.75,SW,218,2.0,3.0,68,0.00,,OVC003,0.00,VWS V14.01,2013-04-15 22:00:00,
2013-04-15 18:05:00,65.5,54.7,29.75,SW,224,3.0,5.0,68,0.00,,OVC003,0.00,VWS V14.01,2013-04-15 22:05:00,
2013-04-15 18:10:00,65.3,54.9,29.76,SW,226,4.0,5.0,69,0.00,,OVC003,0.00,VWS V14.01,2013-04-15 22:10:00,
2013-04-15 18:15:00,65.1,54.7,29.76,SW,232,4.0,4.0,69,0.00,,OVC003,0.00,VWS V14.01,2013-04-15 22:15:00,
2013-04-15 18:20:00,65.0,54.6,29.76,SSW,204,4.0,10.0,69,0.00,,OVC003,0.00,VWS V14.01,2013-04-15 22:20:00,
2013-04-15 18:25:00,64.8,54.4,29.77,South,191,6.0,6.0,69,0.00,,OVC003,0.00,VWS V14.01,2013-04-15 22:25:00,
2013-04-15 18:30:00,64.7,54.7,29.77,SSW,195,5.0,6.0,70,0.00,,OVC003,0.00,VWS V14.01,2013-04-15 22:30:00,
2013-04-15 18:35:00,64.5,54.9,29.77,WSW,252,6.0,6.0,71,0.00,,OVC003,0.00,VWS V14.01,2013-04-15 22:35:00,
2013-04-15 18:40:00,64.2,55.0,29.78,WSW,246,3.0,6.0,72,0.00,,OVC003,0.00,VWS V14.01,2013-04-15 22:40:00,
2013-04-15 18:45:00,63.8,54.6,29.78,WSW,237,5.0,5.0,72,0.00,,OVC003,0.00,VWS V14.01,2013-04-15 22:45:00,
2013-04-15 18:50:00,63.6,54.8,29.78,WSW,244,6.0,6.0,73,0.00,,OVC003,0.00,VWS V14.01,2013-04-15 22:50:00,
2013-04-15 18:55:00,63.5,54.7,29.78,SW,231,3.0,4.0,73,0.00,,OVC003,0.00,VWS V14.01,2013-04-15 22:55:00,
2013-04-15 19:00:00,63.4,54.6,29.78,South,182,3.0,4.0,73,0.00,,OVC003,0.00,VWS V14.01,2013-04-15 23:00:00,
2013-04-15 19:05:00,63.3,54.5,29.78,West,266,3.0,5.0,73,0.00,,OVC003,0.00,VWS V14.01,2013-04-15 23:05:00,
2013-04-15 19:10:00,63.3,54.5,29.78,West,266,2.0,2.0,73,0.00,,OVC003,0.00,VWS V14.01,2013-04-15 23:10:00,
2013-04-15 19:15:00,63.1,54.7,29.78,SSE,149,3.0,4.0,74,0.00,,OVC003,0.00,VWS V14.01,2013-04-15 23:15:00,
2013-04-15 19:20:00,63.1,54.7,29.78,WSW,241,2.0,5.0,74,0.00,,OVC003,0.00,VWS V14.01,2013-04-15 23:20:00,
2013-04-15 19:25:00,62.9,54.9,29.78,WSW,241,2.0,2.0,75,0.00,,OVC003,0.00,VWS V14.01,2013-04-15 23:25:00,
2013-04-15 19:30:00,62.5,55.2,29.78,WNW,286,2.0,9.0,77,0.01,,OVC003,0.01,VWS V14.01,2013-04-15 23:30:00,
2013-04-15 19:35:00,61.6,55.4,29.78,West,278,2.0,7.0,80,0.03,,OVC003,0.03,VWS V14.01,2013-04-15 23:35:00,
2013-04-15 19:40:00,60.5,55.3,29.80,West,270,2.0,6.0,83,0.06,,OVC003,0.06,VWS V14.01,2013-04-15 23:40:00,
2013-04-15 19:45:00,59.7,54.9,29.80,SSE,153,5.0,5.0,84,0.08,,OVC003,0.08,VWS V14.01,2013-04-15 23:45:00,
2013-04-15 19:50:00,58.2,54.3,29.81,WSW,249,4.0,5.0,87,0.12,,OVC003,0.12,VWS V14.01,2013-04-15 23:50:00,
2013-04-15 19:51:00,59.0,54.8,29.80,WNW,299,2.0,3.0,86,0.10,,OVC003,0.10,VWS V14.01,2013-04-15 23:51:00,
2013-04-15 19:55:00,57.8,54.3,29.81,WSW,249,2.0,2.0,88,0.13,,OVC003,0.13,VWS V14.01,2013-04-15 23:55:00,
2013-04-15 19:56:00,58.3,54.5,29.81,WNW,288,2.0,2.0,87,0.12,,OVC003,0.12,VWS V14.01,2013-04-15 23:56:00,
2013-04-15 20:00:00,57.5,54.0,29.80,WSW,250,2.0,2.0,88,0.13,,OVC003,0.13,VWS V14.01,2013-04-16 00:00:00,
2013-04-15 20:01:00,57.9,54.1,29.81,WSW,249,2.0,2.0,87,0.13,,OVC003,0.13,VWS V14.01,2013-04-16 00:01:00,
2013-04-15 20:05:00,57.3,54.1,29.80,WSW,250,2.0,2.0,89,0.13,,OVC003,0.13,VWS V14.01,2013-04-16 00:05:00,
2013-04-15 20:06:00,57.6,54.1,29.81,WSW,249,4.0,4.0,88,0.13,,OVC003,0.13,VWS V14.01,2013-04-16 00:06:00,
2013-04-15 20:10:00,57.0,53.8,29.80,WSW,250,2.0,2.0,89,0.14,,OVC003,0.14,VWS V14.01,2013-04-16 00:10:00,
2013-04-15 20:11:00,57.3,53.8,29.80,WSW,250,2.0,2.0,88,0.13,,OVC003,0.13,VWS V14.01,2013-04-16 00:11:00,
2013-04-15 20:15:00,56.8,53.6,29.79,WSW,250,2.0,2.0,89,0.14,,OVC003,0.14,VWS V14.01,2013-04-16 00:15:00,
2013-04-15 20:16:00,57.1,53.9,29.80,WSW,250,2.0,2.0,89,0.14,,OVC003,0.14,VWS V14.01,2013-04-16 00:16:00,
2013-04-15 20:20:00,56.6,53.7,29.79,WSW,250,2.0,2.0,90,0.14,,OVC003,0.14,VWS V14.01,2013-04-16 00:20:00,
2013-04-15 20:21:00,56.9,53.7,29.80,WSW,249,2.0,2.0,89,0.14,,OVC003,0.14,VWS V14.01,2013-04-16 00:21:00,
2013-04-15 20:25:00,56.5,53.6,29.79,WSW,249,2.0,2.0,90,0.14,,OVC003,0.14,VWS V14.01,2013-04-16 00:25:00,
2013-04-15 20:26:00,56.7,53.8,29.79,WSW,250,2.0,2.0,90,0.14,,OVC003,0.14,VWS V14.01,2013-04-16 00:26:00,
2013-04-15 20:30:00,56.4,53.5,29.81,West,272,2.0,4.0,90,0.13,,OVC003,0.14,VWS V14.01,2013-04-16 00:30:00,
2013-04-15 20:31:00,56.6,53.7,29.79,WSW,250,2.0,2.0,90,0.14,,OVC003,0.14,VWS V14.01,2013-04-16 00:31:00,
2013-04-15 20:35:00,56.3,53.4,29.81,WNW,284,2.0,3.0,90,0.11,,OVC003,0.15,VWS V14.01,2013-04-16 00:35:00,
2013-04-15 20:37:00,56.4,53.5,29.81,West,272,2.0,4.0,90,0.13,,OVC003,0.14,VWS V14.01,2013-04-16 00:37:00,
2013-04-15 20:40:00,56.2,53.6,29.81,WSW,250,3.0,3.0,91,0.09,,OVC003,0.16,VWS V14.01,2013-04-16 00:40:00,
2013-04-15 20:42:00,56.3,53.4,29.81,WNW,283,2.0,3.0,90,0.11,,OVC003,0.15,VWS V14.01,2013-04-16 00:42:00,
2013-04-15 20:45:00,56.1,53.5,29.82,WSW,251,3.0,4.0,91,0.09,,OVC003,0.17,VWS V14.01,2013-04-16 00:45:00,
2013-04-15 20:47:00,56.2,53.6,29.81,WSW,249,3.0,3.0,91,0.09,,OVC003,0.16,VWS V14.01,2013-04-16 00:47:00,
2013-04-15 20:50:00,56.0,53.4,29.82,WNW,295,2.0,3.0,91,0.06,,OVC003,0.17,VWS V14.01,2013-04-16 00:50:00,
2013-04-15 20:52:00,56.2,53.6,29.82,WSW,251,3.0,4.0,91,0.09,,OVC003,0.17,VWS V14.01,2013-04-16 00:52:00,
2013-04-15 20:55:00,55.9,53.3,29.82,WSW,252,3.0,4.0,91,0.06,,OVC003,0.18,VWS V14.01,2013-04-16 00:55:00,
2013-04-15 20:57:00,56.0,53.4,29.82,WNW,296,2.0,3.0,91,0.06,,OVC003,0.17,VWS V14.01,2013-04-16 00:57:00,
2013-04-15 21:00:00,55.8,53.2,29.82,WSW,245,2.0,4.0,91,0.05,,OVC003,0.18,VWS V14.01,2013-04-16 01:00:00,
2013-04-15 21:02:00,55.9,53.3,29.82,WSW,258,6.0,6.0,91,0.06,,OVC003,0.18,VWS V14.01,2013-04-16 01:02:00,
2013-04-15 21:05:00,55.7,53.1,29.82,WSW,247,2.0,4.0,91,0.06,,OVC003,0.19,VWS V14.01,2013-04-16 01:05:00,
2013-04-15 21:07:00,55.8,53.2,29.82,WSW,245,2.0,4.0,91,0.05,,OVC003,0.18,VWS V14.01,2013-04-16 01:07:00,
2013-04-15 21:10:00,55.7,53.4,29.82,WSW,247,2.0,2.0,92,0.06,,OVC003,0.19,VWS V14.01,2013-04-16 01:10:00,
2013-04-15 21:12:00,55.7,53.1,29.82,WSW,247,2.0,4.0,91,0.06,,OVC003,0.19,VWS V14.01,2013-04-16 01:12:00,
2013-04-15 21:15:00,55.6,53.0,29.82,WSW,247,2.0,3.0,91,0.05,,OVC003,0.19,VWS V14.01,2013-04-16 01:15:00,
2013-04-15 21:17:00,55.7,53.4,29.82,WSW,247,2.0,2.0,92,0.06,,OVC003,0.19,VWS V14.01,2013-04-16 01:17:00,
2013-04-15 21:20:00,55.5,53.2,29.82,WSW,247,2.0,2.0,92,0.05,,OVC003,0.19,VWS V14.01,2013-04-16 01:20:00,
2013-04-15 21:23:00,55.6,53.0,29.82,WSW,247,2.0,3.0,91,0.05,,OVC003,0.19,VWS V14.01,2013-04-16 01:23:00,
2013-04-15 21:25:00,55.4,53.1,29.82,WSW,247,2.0,0.0,92,0.05,,OVC003,0.19,VWS V14.01,2013-04-16 01:25:00,
2013-04-15 21:28:00,55.5,53.2,29.82,WSW,247,2.0,2.0,92,0.05,,OVC003,0.19,VWS V14.01,2013-04-16 01:28:00,
2013-04-15 21:30:00,55.3,53.0,29.82,WSW,247,2.0,0.0,92,0.05,,OVC003,0.19,VWS V14.01,2013-04-16 01:30:00,
2013-04-15 21:33:00,55.4,53.1,29.82,WSW,247,2.0,0.0,92,0.05,,OVC003,0.19,VWS V14.01,2013-04-16 01:33:00,
2013-04-15 21:35:00,55.2,52.9,29.82,WSW,247,2.0,2.0,92,0.05,,OVC003,0.19,VWS V14.01,2013-04-16 01:35:00,
2013-04-15 21:38:00,55.3,53.0,29.82,WSW,247,2.0,0.0,92,0.05,,OVC003,0.19,VWS V14.01,2013-04-16 01:38:00,
2013-04-15 21:40:00,55.2,52.9,29.82,WSW,247,2.0,0.0,92,0.04,,OVC003,0.19,VWS V14.01,2013-04-16 01:40:00,
2013-04-15 21:43:00,55.3,53.0,29.82,WSW,247,2.0,2.0,92,0.05,,OVC003,0.19,VWS V14.01,2013-04-16 01:43:00,
2013-04-15 21:45:00,55.1,52.8,29.82,WSW,247,2.0,0.0,92,0.03,,OVC003,0.19,VWS V14.01,2013-04-16 01:45:00,
2013-04-15 21:48:00,55.2,52.9,29.82,WSW,247,2.0,0.0,92,0.04,,OVC003,0.19,VWS V14.01,2013-04-16 01:48:00,
2013-04-15 21:50:00,55.0,52.7,29.82,WSW,247,2.0,0.0,92,0.02,,OVC003,0.19,VWS V14.01,2013-04-16 01:50:00,
2013-04-15 21:53:00,55.1,52.8,29.82,WSW,247,2.0,0.0,92,0.02,,OVC003,0.19,VWS V14.01,2013-04-16 01:53:00,
2013-04-15 21:55:00,54.9,52.6,29.82,WSW,247,2.0,0.0,92,0.02,,OVC003,0.19,VWS V14.01,2013-04-16 01:55:00,
2013-04-15 21:58:00,55.0,52.7,29.82,WSW,247,2.0,0.0,92,0.02,,OVC003,0.19,VWS V14.01,2013-04-16 01:58:00,
2013-04-15 22:00:00,54.8,52.5,29.83,WSW,247,2.0,0.0,92,0.01,,OVC003,0.19,VWS V14.01,2013-04-16 02:00:00,
2013-04-15 22:03:00,54.9,52.6,29.82,WSW,247,2.0,0.0,92,0.01,,OVC003,0.19,VWS V14.01,2013-04-16 02:03:00,
2013-04-15 22:05:00,54.8,52.5,29.83,WSW,247,2.0,0.0,92,0.01,,OVC003,0.19,VWS V14.01,2013-04-16 02:05:00,
2013-04-15 22:08:00,54.8,52.5,29.83,WSW,247,2.0,0.0,92,0.01,,OVC003,0.19,VWS V14.01,2013-04-16 02:08:00,
2013-04-15 22:10:00,54.7,52.4,29.83,WSW,247,2.0,0.0,92,0.00,,OVC003,0.19,VWS V14.01,2013-04-16 02:10:00,
2013-04-15 22:13:00,54.8,52.5,29.83,WSW,247,2.0,0.0,92,0.00,,OVC003,0.19,VWS V14.01,2013-04-16 02:13:00,
2013-04-15 22:15:00,54.6,52.3,29.82,WSW,247,2.0,0.0,92,0.00,,OVC003,0.19,VWS V14.01,2013-04-16 02:15:00,
2013-04-15 22:18:00,54.6,52.3,29.83,WSW,247,2.0,0.0,92,0.00,,OVC003,0.19,VWS V14.01,2013-04-16 02:18:00,
2013-04-15 22:20:00,54.5,52.2,29.82,WSW,247,2.0,0.0,92,0.00,,OVC003,0.19,VWS V14.01,2013-04-16 02:20:00,
2013-04-15 22:23:00,54.5,52.2,29.82,WSW,247,2.0,0.0,92,0.00,,OVC003,0.19,VWS V14.01,2013-04-16 02:23:00,
2013-04-15 22:25:00,54.4,52.1,29.82,WSW,247,2.0,0.0,92,0.00,,OVC003,0.19,VWS V14.01,2013-04-16 02:25:00,
2013-04-15 22:28:00,54.4,52.1,29.82,WSW,247,2.0,0.0,92,0.00,,OVC003,0.19,VWS V14.01,2013-04-16 02:28:00,
2013-04-15 22:30:00,54.3,52.3,29.82,WSW,247,2.0,0.0,93,0.00,,OVC003,0.19,VWS V14.01,2013-04-16 02:30:00,
2013-04-15 22:33:00,54.4,52.1,29.82,WSW,247,2.0,0.0,92,0.00,,OVC003,0.19,VWS V14.01,2013-04-16 02:33:00,
2013-04-15 22:35:00,54.3,52.3,29.82,WSW,247,2.0,0.0,93,0.00,,OVC003,0.19,VWS V14.01,2013-04-16 02:35:00,
2013-04-15 22:38:00,54.3,52.3,29.82,WSW,247,2.0,0.0,93,0.00,,OVC003,0.19,VWS V14.01,2013-04-16 02:38:00,
2013-04-15 22:40:00,54.2,52.2,29.82,WSW,247,2.0,0.0,93,0.00,,OVC003,0.19,VWS V14.01,2013-04-16 02:40:00,
2013-04-15 22:43:00,54.3,52.3,29.82,WSW,247,2.0,0.0,93,0.00,,OVC003,0.19,VWS V14.01,2013-04-16 02:43:00,
2013-04-15 22:45:00,54.2,52.2,29.82,WSW,247,2.0,0.0,93,0.00,,OVC003,0.19,VWS V14.01,2013-04-16 02:45:00,
2013-04-15 22:48:00,54.2,52.2,29.82,WSW,247,2.0,0.0,93,0.00,,OVC003,0.19,VWS V14.01,2013-04-16 02:48:00,
2013-04-15 22:50:00,54.2,52.2,29.82,WSW,247,2.0,2.0,93,0.00,,OVC003,0.19,VWS V14.01,2013-04-16 02:50:00,
2013-04-15 22:53:00,54.2,52.2,29.82,WSW,247,3.0,3.0,93,0.00,,OVC003,0.19,VWS V14.01,2013-04-16 02:53:00,
2013-04-15 22:55:00,54.1,52.1,29.82,WSW,247,2.0,2.0,93,0.00,,OVC003,0.19,VWS V14.01,2013-04-16 02:55:00,
2013-04-15 22:58:00,54.2,52.2,29.82,WSW,247,2.0,0.0,93,0.00,,OVC003,0.19,VWS V14.01,2013-04-16 02:58:00,
2013-04-15 23:00:00,54.0,52.0,29.82,WSW,247,4.0,4.0,93,0.00,,OVC003,0.19,VWS V14.01,2013-04-16 03:00:00,
2013-04-15 23:03:00,54.1,52.1,29.82,WSW,247,2.0,0.0,93,0.00,,OVC003,0.19,VWS V14.01,2013-04-16 03:03:00,
2013-04-15 23:05:00,53.9,51.9,29.82,WSW,247,2.0,2.0,93,0.00,,OVC003,0.19,VWS V14.01,2013-04-16 03:05:00,
2013-04-15 23:08:00,54.0,52.0,29.82,WSW,247,2.0,2.0,93,0.00,,OVC003,0.19,VWS V14.01,2013-04-16 03:08:00,
2013-04-15 23:10:00,53.8,51.8,29.82,WSW,247,2.0,0.0,93,0.00,,OVC003,0.19,VWS V14.01,2013-04-16 03:10:00,
2013-04-15 23:13:00,53.9,51.9,29.82,WSW,247,2.0,0.0,93,0.00,,OVC003,0.19,VWS V14.01,2013-04-16 03:13:00,
2013-04-15 23:15:00,53.7,51.7,29.82,WSW,247,2.0,0.0,93,0.00,,OVC003,0.19,VWS V14.01,2013-04-16 03:15:00,
2013-04-15 23:18:00,53.8,51.8,29.82,WSW,247,2.0,0.0,93,0.00,,OVC003,0.19,VWS V14.01,2013-04-16 03:18:00,
2013-04-15 23:20:00,53.6,51.6,29.82,WSW,247,2.0,0.0,93,0.01,,OVC003,0.20,VWS V14.01,2013-04-16 03:20:00,
2013-04-15 23:24:00,53.7,51.7,29.82,WSW,247,2.0,0.0,93,0.00,,OVC003,0.19,VWS V14.01,2013-04-16 03:24:00,
2013-04-15 23:25:00,53.6,51.6,29.82,WSW,247,2.0,0.0,93,0.01,,OVC003,0.20,VWS V14.01,2013-04-16 03:25:00,
2013-04-15 23:29:00,53.6,51.6,29.82,WSW,247,2.0,0.0,93,0.01,,OVC003,0.20,VWS V14.01,2013-04-16 03:29:00,
2013-04-15 23:30:00,53.5,51.5,29.82,WSW,247,2.0,2.0,93,0.01,,OVC003,0.20,VWS V14.01,2013-04-16 03:30:00,
2013-04-15 23:34:00,53.6,51.6,29.82,WSW,247,2.0,0.0,93,0.01,,OVC003,0.20,VWS V14.01,2013-04-16 03:34:00,
2013-04-15 23:35:00,53.3,51.3,29.82,WSW,247,2.0,2.0,93,0.01,,OVC003,0.20,VWS V14.01,2013-04-16 03:35:00,
2013-04-15 23:39:00,53.5,51.5,29.82,WSW,247,2.0,0.0,93,0.01,,OVC003,0.20,VWS V14.01,2013-04-16 03:39:00,
2013-04-15 23:40:00,53.1,51.1,29.82,WSW,247,2.0,2.0,93,0.02,,OVC003,0.21,VWS V14.01,2013-04-16 03:40:00,
2013-04-15 23:44:00,53.3,51.3,29.82,WSW,247,2.0,0.0,93,0.01,,OVC003,0.20,VWS V14.01,2013-04-16 03:44:00,
2013-04-15 23:45:00,52.8,50.8,29.84,WSW,247,2.0,2.0,93,0.03,,OVC003,0.22,VWS V14.01,2013-04-16 03:45:00,
2013-04-15 23:49:00,53.0,51.0,29.82,WSW,247,2.0,0.0,93,0.02,,OVC003,0.21,VWS V14.01,2013-04-16 03:49:00,
2013-04-15 23:50:00,52.6,50.6,29.84,WSW,249,2.0,2.0,93,0.05,,OVC003,0.24,VWS V14.01,2013-04-16 03:50:00,
2013-04-15 23:54:00,52.7,50.7,29.84,WSW,247,2.0,0.0,93,0.03,,OVC003,0.22,VWS V14.01,2013-04-16 03:54:00,
2013-04-15 23:55:00,52.5,50.5,29.84,West,268,2.0,2.0,93,0.08,,OVC003,0.27,VWS V14.01,2013-04-16 03:55:00,
2013-04-15 23:59:00,52.6,50.6,29.84,West,270,2.0,2.0,93,0.05,,OVC003,0.24,VWS V14.01,2013-04-16 03:59:00,